Time;durP1;ratioP1;P1;durP2;ratioP2;P2;SDS_P1;SDS_P2;PMS_P1;PMS_P2;Temp;Humidity;BMP_temperature;BMP_pressure;BME280_temperature;BME280_humidity;BME280_pressure;Samples;Min_cycle;Max_cycle;Signal;HPM_P1;HPM_P2
2022/11/27 00:00:53;;;;;;;44.15;13.85;;;;;;;5.39;81.17;101655.13;5011110;28;20962;-80
2022/11/27 00:03:19;;;;;;;30.98;12.93;;;;;;;5.26;82.05;101653.06;5012447;28;20396;-80
2022/11/27 00:05:55;;;;;;;30.77;12.90;;;;;;;5.30;82.23;101638.25;5012635;28;20543;-80
2022/11/27 00:08:20;;;;;;;35.25;15.38;;;;;;;5.27;82.32;101643.97;5003073;28;20409;-80
2022/11/27 00:10:46;;;;;;;31.63;14.52;;;;;;;5.33;82.35;101642.44;5007549;28;20415;-80
2022/11/27 00:13:11;;;;;;;22.87;11.57;;;;;;;5.33;82.42;101637.91;5011484;28;20401;-79
2022/11/27 00:15:36;;;;;;;38.67;12.83;;;;;;;5.28;82.30;101629.53;5004156;28;20500;-80
2022/11/27 00:18:02;;;;;;;23.60;10.37;;;;;;;5.31;82.40;101620.25;4995224;28;20400;-79
2022/11/27 00:20:27;;;;;;;40.60;11.50;;;;;;;5.26;82.90;101607.38;5000148;28;20408;-79
2022/11/27 00:22:52;;;;;;;26.23;9.40;;;;;;;5.23;82.99;101608.59;5012187;28;20446;-80
2022/11/27 00:25:17;;;;;;;15.87;8.10;;;;;;;5.26;82.48;101614.59;5012332;28;20392;-80
2022/11/27 00:27:43;;;;;;;32.33;8.37;;;;;;;5.22;82.85;101606.91;5011251;28;20408;-80
2022/11/27 00:30:08;;;;;;;12.47;7.80;;;;;;;5.15;82.99;101616.72;5001913;28;20416;-80
2022/11/27 00:32:34;;;;;;;25.73;8.23;;;;;;;5.16;82.66;101601.44;5010232;28;20432;-80
2022/11/27 00:34:59;;;;;;;9.70;7.17;;;;;;;5.13;83.26;101613.38;5009744;28;20471;-80
2022/11/27 00:37:24;;;;;;;31.95;8.07;;;;;;;5.13;83.03;101596.41;5009209;28;20811;-80
2022/11/27 00:39:49;;;;;;;28.83;8.10;;;;;;;5.16;83.38;101599.59;5003632;28;20512;-80
2022/11/27 00:42:15;;;;;;;13.10;6.77;;;;;;;5.23;82.84;101597.84;5005548;28;20402;-80
2022/11/27 00:44:40;;;;;;;14.03;7.97;;;;;;;5.22;82.67;101592.63;4996094;28;20426;-80
2022/11/27 00:47:05;;;;;;;22.33;7.77;;;;;;;5.15;82.95;101589.84;5003312;28;20508;-80
2022/11/27 00:49:31;;;;;;;16.73;7.55;;;;;;;5.13;83.68;101591.88;5004348;28;20488;-79
2022/11/27 00:51:56;;;;;;;19.17;6.70;;;;;;;5.14;83.93;101598.06;5011858;28;20393;-80
2022/11/27 00:54:21;;;;;;;16.83;7.47;;;;;;;5.19;84.16;101596.53;5007642;28;20413;-80
2022/11/27 00:56:47;;;;;;;19.75;7.82;;;;;;;5.28;83.76;101591.91;5008873;28;20427;-80
2022/11/27 00:59:12;;;;;;;20.63;6.97;;;;;;;5.35;83.83;101589.31;5003088;28;20412;-80
2022/11/27 01:01:42;;;;;;;14.07;6.70;;;;;;;5.40;83.19;101584.25;5011599;28;20397;-80
2022/11/27 01:04:10;;;;;;;11.88;6.93;;;;;;;5.45;83.20;101584.50;5011199;28;20393;-80
2022/11/27 01:06:35;;;;;;;21.67;7.68;;;;;;;5.47;83.21;101571.69;5004725;28;20417;-80
2022/11/27 01:09:01;;;;;;;40.67;11.93;;;;;;;5.47;83.26;101577.91;5001758;28;20392;-80
2022/11/27 01:11:29;;;;;;;26.45;8.75;;;;;;;5.49;83.11;101567.84;5011564;28;20396;-80
2022/11/27 01:13:57;;;;;;;22.70;8.68;;;;;;;5.51;83.60;101564.94;5011481;28;20412;-80
2022/11/27 01:16:24;;;;;;;17.10;7.90;;;;;;;5.53;83.43;101571.00;5007194;28;20460;-80
2022/11/27 01:18:52;;;;;;;15.48;7.65;;;;;;;5.54;83.76;101568.09;5003290;28;20455;-80
2022/11/27 01:21:19;;;;;;;25.45;7.32;;;;;;;5.56;83.13;101570.63;5011465;28;20397;-80
2022/11/27 01:23:46;;;;;;;16.17;7.32;;;;;;;5.58;83.11;101563.19;5003453;28;20489;-80
2022/11/27 01:26:16;;;;;;;16.02;7.70;;;;;;;5.58;83.63;101561.34;5006292;28;20787;-80
2022/11/27 01:28:41;;;;;;;22.87;8.03;;;;;;;5.45;83.64;101565.69;5004955;28;20481;-80
2022/11/27 01:31:11;;;;;;;20.33;8.03;;;;;;;5.44;83.96;101564.84;4999380;28;20404;-80
2022/11/27 01:33:36;;;;;;;24.35;8.10;;;;;;;5.53;83.71;101557.53;5009667;28;20397;-80
2022/11/27 01:36:04;;;;;;;34.72;8.75;;;;;;;5.55;83.76;101560.88;5009991;28;20914;-80
2022/11/27 01:38:30;;;;;;;24.80;8.15;;;;;;;5.56;83.62;101558.00;5009714;28;20403;-80
2022/11/27 01:41:01;;;;;;;13.05;6.22;;;;;;;5.62;83.81;101568.03;5009676;28;20415;-80
2022/11/27 01:43:50;;;;;;;22.45;9.18;;;;;;;5.65;83.97;101570.34;5011305;28;20496;-80
2022/11/27 01:46:34;;;;;;;20.73;8.30;;;;;;;5.63;83.72;101563.47;5005137;28;20441;-80
2022/11/27 01:49:09;;;;;;;18.13;10.10;;;;;;;5.61;84.03;101566.34;4995560;28;20400;-80
2022/11/27 01:51:45;;;;;;;24.23;9.32;;;;;;;5.60;84.41;101567.34;5007909;28;20783;-80
2022/11/27 01:54:11;;;;;;;29.05;9.55;;;;;;;5.61;84.19;101566.34;5013443;28;20488;-80
2022/11/27 01:56:39;;;;;;;18.23;12.32;;;;;;;5.60;84.66;101561.13;5011947;28;20409;-80
2022/11/27 01:59:05;;;;;;;16.92;9.05;;;;;;;5.57;85.23;101562.34;5007210;28;20506;-80
2022/11/27 02:01:30;;;;;;;21.37;8.07;;;;;;;5.64;84.80;101565.97;5008801;28;20468;-80
2022/11/27 02:03:58;;;;;;;12.97;7.20;;;;;;;5.66;84.61;101561.22;5014813;28;20388;-80
2022/11/27 02:06:24;;;;;;;15.10;8.07;;;;;;;5.66;84.82;101557.72;5010328;28;20511;-80
2022/11/27 02:08:51;;;;;;;15.23;7.72;;;;;;;5.67;84.02;101556.69;5000383;28;20417;-80
2022/11/27 02:11:45;;;;;;;15.00;7.57;;;;;;;5.67;84.02;101554.00;5006998;28;20895;-80
2022/11/27 02:14:25;;;;;;;34.97;13.40;;;;;;;5.68;84.45;101558.38;5022558;28;21001;-80
2022/11/27 02:17:01;;;;;;;15.05;7.57;;;;;;;5.61;84.13;101565.50;5006176;28;20472;-80
2022/11/27 02:19:42;;;;;;;10.07;7.27;;;;;;;5.64;84.55;101565.97;5002051;28;20897;-80
2022/11/27 02:22:31;;;;;;;19.30;7.40;;;;;;;5.63;84.49;101574.25;5009872;28;20425;-80
2022/11/27 02:25:23;;;;;;;24.25;7.95;;;;;;;5.57;84.27;101580.34;5005717;28;20884;-80
2022/11/27 02:28:01;;;;;;;18.90;7.20;;;;;;;5.51;84.42;101576.53;5006180;28;20402;-80
2022/11/27 02:30:29;;;;;;;10.05;6.40;;;;;;;5.54;84.22;101572.63;5010055;28;20443;-80
2022/11/27 02:33:01;;;;;;;15.73;6.63;;;;;;;5.58;84.46;101571.25;5013734;28;20919;-80
2022/11/27 02:35:40;;;;;;;10.87;7.00;;;;;;;5.63;84.13;101571.56;5012250;28;20422;-80
2022/11/27 02:38:22;;;;;;;12.23;6.53;;;;;;;5.66;83.95;101580.06;5012005;28;20489;-80
2022/11/27 02:40:57;;;;;;;11.73;6.63;;;;;;;5.67;83.51;101576.34;5011182;28;20409;-80
2022/11/27 02:43:29;;;;;;;11.63;6.68;;;;;;;5.69;83.81;101565.44;5007851;28;20412;-80
2022/11/27 02:45:58;;;;;;;13.60;6.35;;;;;;;5.69;83.87;101554.66;5008370;28;20503;-80
2022/11/27 02:48:29;;;;;;;15.38;6.75;;;;;;;5.62;83.88;101548.34;5004082;28;20402;-80
2022/11/27 02:50:55;;;;;;;10.85;6.20;;;;;;;5.61;83.76;101557.44;5005697;28;20412;-80
2022/11/27 02:53:31;;;;;;;14.48;6.60;;;;;;;5.65;83.84;101543.44;5010845;28;20416;-80
2022/11/27 02:55:58;;;;;;;12.98;7.03;;;;;;;5.65;83.61;101545.28;4999164;28;20424;-80
2022/11/27 02:58:27;;;;;;;15.40;5.80;;;;;;;5.63;83.25;101544.66;5013785;28;20393;-80
2022/11/27 03:00:54;;;;;;;11.15;6.25;;;;;;;5.62;83.38;101538.44;5009871;28;20495;-80
2022/11/27 03:03:28;;;;;;;10.55;5.97;;;;;;;5.62;83.79;101534.91;5012910;28;20409;-80
2022/11/27 03:06:00;;;;;;;8.65;6.20;;;;;;;5.64;83.39;101539.06;5009203;28;20440;-80
2022/11/27 03:08:41;;;;;;;19.17;5.95;;;;;;;5.58;83.44;101518.31;5000450;28;20421;-80
2022/11/27 03:11:10;;;;;;;18.13;6.75;;;;;;;5.58;83.76;101520.16;5008600;28;20900;-80
2022/11/27 03:13:49;;;;;;;10.18;6.00;;;;;;;5.55;83.96;101524.06;5008281;28;20479;-80
2022/11/27 03:16:36;;;;;;;7.53;5.80;;;;;;;5.61;83.69;101520.63;5008547;28;20417;-79
2022/11/27 03:19:30;;;;;;;17.13;5.87;;;;;;;5.64;83.68;101514.03;5008439;28;20908;-80
2022/11/27 03:21:58;;;;;;;8.00;5.87;;;;;;;5.65;83.31;101521.09;5002246;28;20497;-80
2022/11/27 03:24:24;;;;;;;7.00;5.60;;;;;;;5.64;83.40;101517.56;5005918;28;20487;-80
2022/11/27 03:26:50;;;;;;;27.85;6.90;;;;;;;5.59;82.83;101509.25;5003409;28;20504;-80
2022/11/27 03:29:22;;;;;;;8.32;6.05;;;;;;;5.54;84.01;101508.94;5002302;28;20408;-80
2022/11/27 03:31:48;;;;;;;8.43;5.90;;;;;;;5.59;83.52;101505.72;5013272;28;20451;-80
2022/11/27 03:34:15;;;;;;;6.67;5.83;;;;;;;5.62;83.60;101503.47;5011654;28;20441;-80
2022/11/27 03:36:40;;;;;;;9.77;6.38;;;;;;;5.64;83.53;101498.75;5007805;28;20428;-80
2022/11/27 03:39:06;;;;;;;9.35;6.50;;;;;;;5.67;83.76;101505.59;5009011;28;20873;-80
2022/11/27 03:42:00;;;;;;;10.07;6.10;;;;;;;5.69;83.34;101498.19;5011816;28;20500;-80
2022/11/27 03:44:50;;;;;;;10.93;5.93;;;;;;;5.69;83.05;101490.13;5005644;28;20429;-80
2022/11/27 03:47:49;;;;;;;14.23;6.77;;;;;;;5.71;83.18;101485.38;5002902;28;20808;-80
2022/11/27 03:50:18;;;;;;;9.15;6.00;;;;;;;5.71;83.58;101491.59;5011194;28;20479;-80
2022/11/27 03:52:52;;;;;;;13.82;5.93;;;;;;;5.71;83.47;101483.53;5006979;28;20892;-80
2022/11/27 03:55:44;;;;;;;8.90;6.07;;;;;;;5.73;83.69;101491.38;5012571;28;20949;-80
2022/11/27 03:58:36;;;;;;;11.45;6.15;;;;;;;5.74;83.54;101490.38;5006936;28;20491;-80
2022/11/27 04:01:05;;;;;;;15.23;6.30;;;;;;;5.74;83.49;101490.38;5003096;28;20860;-80
2022/11/27 04:03:30;;;;;;;12.18;6.63;;;;;;;5.76;83.57;101491.84;4999562;28;20496;-80
2022/11/27 04:05:56;;;;;;;13.40;6.20;;;;;;;5.78;83.48;101485.47;5012117;28;20493;-80
2022/11/27 04:08:22;;;;;;;16.05;6.30;;;;;;;5.79;83.62;101485.28;5009886;28;20473;-80
2022/11/27 04:10:47;;;;;;;10.77;6.90;;;;;;;5.80;83.48;101488.78;5012549;28;20392;-80
2022/11/27 04:13:13;;;;;;;11.93;6.63;;;;;;;5.84;83.16;101476.63;5004963;28;20415;-80
2022/11/27 04:15:38;;;;;;;10.63;6.90;;;;;;;5.89;83.52;101496.63;5009614;28;20887;-80
2022/11/27 04:18:04;;;;;;;9.57;6.67;;;;;;;5.91;83.60;101491.03;5010739;28;20488;-80
2022/11/27 04:20:29;;;;;;;10.73;7.25;;;;;;;5.88;83.42;101481.47;5000859;28;20393;-80
2022/11/27 04:22:55;;;;;;;9.13;6.30;;;;;;;5.89;83.67;101477.78;5008925;28;20440;-80
2022/11/27 04:25:20;;;;;;;10.77;6.10;;;;;;;5.92;83.52;101473.88;5004841;28;20503;-80
2022/11/27 04:27:46;;;;;;;13.15;7.28;;;;;;;5.92;83.69;101477.41;5012199;28;20540;-80
2022/11/27 04:30:12;;;;;;;11.50;6.60;;;;;;;5.94;83.31;101483.41;5010993;28;20388;-80
2022/11/27 04:32:37;;;;;;;16.73;6.68;;;;;;;5.93;83.32;101483.63;5006773;28;20401;-80
2022/11/27 04:35:04;;;;;;;11.52;6.43;;;;;;;5.90;83.61;101482.13;5008291;28;20444;-80
2022/11/27 04:37:29;;;;;;;10.93;6.63;;;;;;;5.92;83.64;101479.25;5010641;28;20399;-80
2022/11/27 04:39:54;;;;;;;11.43;6.33;;;;;;;5.94;84.12;101474.50;5005917;28;20392;-79
2022/11/27 04:42:20;;;;;;;14.18;6.97;;;;;;;5.94;83.96;101463.75;5012193;28;20400;-80
2022/11/27 04:44:45;;;;;;;13.93;7.13;;;;;;;5.92;84.17;101463.94;5000033;28;20422;-80
2022/11/27 04:47:10;;;;;;;11.50;7.20;;;;;;;5.94;84.06;101463.75;5032269;28;20909;-80
2022/11/27 04:49:35;;;;;;;16.40;7.60;;;;;;;5.96;83.65;101459.81;5004759;28;20407;-80
2022/11/27 04:52:01;;;;;;;12.87;6.77;;;;;;;5.99;83.48;101461.31;5011973;28;20416;-80
2022/11/27 04:54:26;;;;;;;13.43;6.45;;;;;;;6.00;83.99;101463.81;4988825;28;20421;-80
2022/11/27 04:56:51;;;;;;;13.60;7.20;;;;;;;6.01;83.72;101453.88;5007861;28;20407;-80
2022/11/27 04:59:17;;;;;;;12.67;6.83;;;;;;;6.02;83.48;101453.72;5000116;28;20408;-80
2022/11/27 05:01:42;;;;;;;13.43;6.87;;;;;;;6.02;83.77;101450.19;5000549;28;20459;-80
2022/11/27 05:04:07;;;;;;;13.97;6.30;;;;;;;6.02;83.57;101444.81;5006967;28;20394;-79
2022/11/27 05:06:33;;;;;;;14.57;6.97;;;;;;;6.05;83.79;101456.03;5009889;28;20521;-79
2022/11/27 05:09:00;;;;;;;12.73;7.03;;;;;;;6.04;83.51;101443.56;5001456;28;20417;-80
2022/11/27 05:11:29;;;;;;;15.20;7.28;;;;;;;6.06;83.52;101441.50;5011885;28;20385;-80
2022/11/27 05:14:13;;;;;;;16.38;6.93;;;;;;;6.08;83.78;101446.72;5009193;28;20500;-80
2022/11/27 05:16:57;;;;;;;13.82;7.53;;;;;;;6.08;84.13;101441.34;5008589;28;20490;-80
2022/11/27 05:19:24;;;;;;;12.25;7.05;;;;;;;6.07;83.72;101439.66;4993714;28;20932;-80
2022/11/27 05:21:51;;;;;;;12.23;7.07;;;;;;;6.09;83.78;101445.72;4994327;28;20406;-80
2022/11/27 05:24:17;;;;;;;13.02;7.32;;;;;;;6.10;83.91;101444.66;5004740;28;22764;-80
2022/11/27 05:26:43;;;;;;;11.98;7.13;;;;;;;6.09;83.86;101443.81;4998100;28;20962;-80
2022/11/27 05:29:09;;;;;;;12.50;7.47;;;;;;;6.10;83.77;101440.13;5007034;28;20416;-80
2022/11/27 05:31:35;;;;;;;14.30;7.85;;;;;;;6.12;84.28;101442.63;5015356;28;20753;-80
2022/11/27 05:34:01;;;;;;;13.20;8.15;;;;;;;6.13;83.49;101445.13;5011903;28;20400;-80
2022/11/27 05:36:27;;;;;;;13.40;7.90;;;;;;;6.15;83.76;101447.63;5015249;28;20446;-80
2022/11/27 05:38:53;;;;;;;12.75;7.70;;;;;;;6.15;83.58;101451.16;5001710;28;20940;-79
2022/11/27 05:41:18;;;;;;;12.82;7.50;;;;;;;6.15;84.28;101447.63;5013312;28;20408;-79
2022/11/27 05:43:44;;;;;;;16.17;9.07;;;;;;;6.16;83.74;101442.03;5006674;28;20448;-79
2022/11/27 05:46:11;;;;;;;16.13;8.73;;;;;;;6.18;83.96;101440.00;4999377;28;20413;-79
2022/11/27 05:48:37;;;;;;;21.52;11.00;;;;;;;6.18;84.22;101444.56;5015057;28;20381;-79
2022/11/27 05:51:03;;;;;;;15.93;8.98;;;;;;;6.18;83.88;101442.69;5014007;28;20400;-79
2022/11/27 05:53:29;;;;;;;15.52;8.65;;;;;;;6.18;84.17;101439.16;5014043;28;20888;-79
2022/11/27 05:55:59;;;;;;;17.10;9.87;;;;;;;6.18;83.95;101434.63;5013667;28;20478;-79
2022/11/27 05:58:24;;;;;;;16.40;8.68;;;;;;;6.19;83.84;101436.25;5014884;28;20387;-79
2022/11/27 06:00:50;;;;;;;13.73;8.13;;;;;;;6.20;84.28;101445.19;5009744;28;20824;-79
2022/11/27 06:03:15;;;;;;;18.33;8.70;;;;;;;6.20;84.18;101434.41;5002112;28;20404;-79
2022/11/27 06:05:40;;;;;;;14.45;7.78;;;;;;;6.19;84.18;101430.06;5011371;28;20396;-79
2022/11/27 06:08:06;;;;;;;16.70;8.17;;;;;;;6.02;83.93;101425.97;4997930;28;20737;-79
2022/11/27 06:10:32;;;;;;;17.73;7.77;;;;;;;5.95;84.60;101423.22;4997492;28;20454;-79
2022/11/27 06:12:57;;;;;;;16.37;8.10;;;;;;;5.94;85.13;101416.16;5002502;28;20395;-79
2022/11/27 06:15:22;;;;;;;15.47;7.50;;;;;;;6.00;84.88;101407.31;5010436;28;20437;-79
2022/11/27 06:17:48;;;;;;;14.13;7.10;;;;;;;6.03;84.38;101390.78;4999584;28;20417;-79
2022/11/27 06:20:14;;;;;;;18.27;7.97;;;;;;;6.03;84.33;101387.25;5012502;28;20454;-79
2022/11/27 06:22:39;;;;;;;15.73;7.47;;;;;;;6.00;84.14;101376.88;5012484;28;20795;-79
2022/11/27 06:25:05;;;;;;;13.80;6.83;;;;;;;5.92;84.15;101372.47;5007319;28;20392;-79
2022/11/27 06:27:34;;;;;;;11.33;6.80;;;;;;;5.98;84.57;101377.09;5011676;28;20443;-79
2022/11/27 06:30:01;;;;;;;12.48;6.65;;;;;;;6.05;83.87;101375.28;4995955;28;20414;-79
2022/11/27 06:32:26;;;;;;;13.63;6.97;;;;;;;6.08;84.51;101372.22;5014517;28;20432;-80
2022/11/27 06:34:51;;;;;;;13.10;6.90;;;;;;;6.08;84.06;101369.53;5012435;28;20408;-79
2022/11/27 06:37:17;;;;;;;15.60;7.03;;;;;;;6.09;84.47;101373.84;5013621;28;20389;-79
2022/11/27 06:39:42;;;;;;;12.90;7.30;;;;;;;6.09;84.12;101373.06;5004207;28;20730;-79
2022/11/27 06:42:07;;;;;;;13.97;7.57;;;;;;;6.09;84.14;101381.13;5013579;28;20397;-79
2022/11/27 06:44:33;;;;;;;14.70;7.40;;;;;;;6.09;83.88;101389.19;5000682;28;20896;-79
2022/11/27 06:46:58;;;;;;;11.43;7.07;;;;;;;6.11;83.89;101390.66;4999629;28;23045;-79
2022/11/27 06:49:23;;;;;;;12.17;7.47;;;;;;;6.12;83.98;101380.72;5000146;28;20407;-79
2022/11/27 06:51:49;;;;;;;15.13;8.07;;;;;;;6.13;83.60;101393.13;5000532;28;20776;-79
2022/11/27 06:54:15;;;;;;;14.35;7.43;;;;;;;6.15;83.96;101399.19;4999750;28;20414;-79
2022/11/27 06:56:40;;;;;;;16.17;8.82;;;;;;;6.15;83.84;101400.03;5003469;28;20426;-79
2022/11/27 06:59:05;;;;;;;17.03;9.53;;;;;;;6.12;83.83;101397.72;5009298;28;20487;-79
2022/11/27 07:01:31;;;;;;;15.63;8.97;;;;;;;6.13;83.73;101380.53;4999550;28;20813;-79
2022/11/27 07:03:57;;;;;;;15.30;9.27;;;;;;;6.17;83.76;101375.59;5004372;28;20916;-79
2022/11/27 07:06:24;;;;;;;17.17;9.27;;;;;;;6.19;83.67;101365.47;5013882;28;20397;-79
2022/11/27 07:08:50;;;;;;;17.88;9.55;;;;;;;6.17;83.19;101348.69;5000305;28;20402;-78
2022/11/27 07:11:18;;;;;;;17.17;9.80;;;;;;;6.14;83.43;101341.00;5006677;28;20405;-78
2022/11/27 07:13:45;;;;;;;17.45;8.45;;;;;;;6.08;83.78;101339.91;5013503;28;20392;-78
2022/11/27 07:16:11;;;;;;;14.70;8.40;;;;;;;6.10;83.70;101339.72;5004370;28;20434;-78
2022/11/27 07:18:40;;;;;;;22.15;9.13;;;;;;;6.10;83.68;101362.06;5007100;28;20745;-78
2022/11/27 07:21:06;;;;;;;23.92;11.40;;;;;;;6.13;83.23;101356.31;5004894;28;20409;-78
2022/11/27 07:23:31;;;;;;;25.77;11.40;;;;;;;6.14;83.60;101349.91;5002877;28;20420;-78
2022/11/27 07:25:57;;;;;;;17.60;9.97;;;;;;;6.16;83.74;101341.63;5004016;28;20733;-78
2022/11/27 07:28:22;;;;;;;16.27;8.85;;;;;;;6.16;83.17;101330.84;5004100;28;20761;-78
2022/11/27 07:30:55;;;;;;;18.07;9.50;;;;;;;6.13;83.60;101325.88;5012549;28;20397;-78
2022/11/27 07:33:21;;;;;;;19.50;8.80;;;;;;;6.13;83.33;101337.47;5009354;28;20471;-79
2022/11/27 07:35:46;;;;;;;13.38;8.27;;;;;;;6.18;83.16;101355.72;5006477;28;20421;-78
2022/11/27 07:38:11;;;;;;;14.73;7.87;;;;;;;6.18;83.81;101363.81;5004609;28;20439;-78
2022/11/27 07:40:37;;;;;;;18.40;8.80;;;;;;;6.18;83.15;101370.03;5005208;28;21110;-78
2022/11/27 07:43:02;;;;;;;14.98;8.60;;;;;;;6.15;82.99;101372.28;5007162;28;20481;-78
2022/11/27 07:45:27;;;;;;;13.70;8.40;;;;;;;6.17;83.08;101372.91;5003813;28;20800;-78
2022/11/27 07:47:53;;;;;;;15.20;8.27;;;;;;;6.14;83.77;101363.34;5010499;28;20412;-77
2022/11/27 07:50:18;;;;;;;12.37;8.67;;;;;;;6.15;83.77;101364.19;5003453;28;20506;-77
2022/11/27 07:52:43;;;;;;;44.57;18.13;;;;;;;6.18;83.15;101366.50;5001625;28;20500;-77
2022/11/27 07:55:09;;;;;;;21.93;10.53;;;;;;;6.19;83.80;101368.16;5002285;28;20511;-77
2022/11/27 07:57:34;;;;;;;16.75;9.43;;;;;;;6.17;83.24;101356.75;5005927;28;20888;-77
2022/11/27 08:00:00;;;;;;;18.98;11.43;;;;;;;6.16;83.45;101358.59;5009440;28;20758;-77
2022/11/27 08:02:25;;;;;;;20.10;11.03;;;;;;;6.16;83.23;101341.63;5003013;28;20450;-77
2022/11/27 08:04:50;;;;;;;36.77;20.43;;;;;;;6.12;83.81;101335.81;5005907;28;20481;-76
2022/11/27 08:07:16;;;;;;;17.42;8.85;;;;;;;6.08;83.13;101329.16;5006866;28;20385;-77
2022/11/27 08:09:41;;;;;;;20.50;9.43;;;;;;;5.94;83.25;101323.84;5010089;28;21196;-77
2022/11/27 08:12:07;;;;;;;18.00;9.23;;;;;;;5.76;84.16;101321.59;4998654;28;20417;-77
2022/11/27 08:14:32;;;;;;;14.50;9.00;;;;;;;5.90;84.51;101309.09;4997605;28;20522;-77
2022/11/27 08:16:58;;;;;;;17.23;8.23;;;;;;;5.77;84.05;101299.03;5002033;28;20413;-77
2022/11/27 08:19:23;;;;;;;16.83;7.20;;;;;;;5.81;84.29;101313.78;5000130;28;20502;-78
2022/11/27 08:21:49;;;;;;;15.13;7.90;;;;;;;5.99;84.14;101314.19;5010475;28;20523;-77
2022/11/27 08:24:14;;;;;;;35.92;8.10;;;;;;;5.94;83.45;101310.38;5001314;28;20501;-78
2022/11/27 08:26:39;;;;;;;41.40;10.05;;;;;;;5.86;84.34;101305.97;5006428;28;20504;-76
2022/11/27 08:29:05;;;;;;;59.37;24.93;;;;;;;5.84;84.32;101299.94;4995477;28;20410;-77
2022/11/27 08:31:31;;;;;;;28.90;10.30;;;;;;;5.99;83.97;101303.41;4996163;28;20417;-77
2022/11/27 08:33:57;;;;;;;24.65;12.40;;;;;;;6.10;83.48;101288.59;5003739;28;20480;-78
2022/11/27 08:36:25;;;;;;;18.00;9.15;;;;;;;6.18;83.19;101280.38;5009567;28;20421;-77
2022/11/27 08:38:50;;;;;;;25.13;8.55;;;;;;;6.21;83.00;101266.53;5002834;28;20401;-78
2022/11/27 08:41:16;;;;;;;21.47;10.00;;;;;;;6.14;83.13;101271.84;5005167;28;20427;-77
2022/11/27 08:43:41;;;;;;;19.30;9.73;;;;;;;6.17;83.66;101278.69;5000652;28;20420;-77
2022/11/27 08:46:06;;;;;;;31.53;9.60;;;;;;;6.19;83.28;101285.53;5006357;28;20775;-77
2022/11/27 08:48:32;;;;;;;21.43;10.27;;;;;;;6.19;83.37;101315.16;5007144;28;20416;-77
2022/11/27 08:50:57;;;;;;;24.67;10.40;;;;;;;6.22;83.29;101322.03;4997712;28;20406;-77
2022/11/27 08:53:23;;;;;;;19.00;10.07;;;;;;;6.30;83.47;101316.47;4992912;28;20406;-77
2022/11/27 08:55:48;;;;;;;19.00;11.37;;;;;;;6.33;83.18;101315.25;4991877;28;20794;-77
2022/11/27 08:58:14;;;;;;;19.13;10.20;;;;;;;6.39;83.08;101314.50;5006668;28;20416;-77
2022/11/27 09:00:40;;;;;;;21.02;12.82;;;;;;;6.43;82.63;101310.34;5018079;28;20450;-77
2022/11/27 09:03:05;;;;;;;26.13;12.48;;;;;;;6.46;82.72;101299.19;5015239;28;20420;-77
2022/11/27 09:05:31;;;;;;;21.20;11.43;;;;;;;6.46;82.97;101299.19;5002945;28;20422;-77
2022/11/27 09:07:58;;;;;;;38.30;19.35;;;;;;;6.50;82.95;101300.44;5011137;28;20852;-77
2022/11/27 09:10:27;;;;;;;24.52;13.25;;;;;;;6.55;82.59;101300.72;5017005;28;20399;-78
2022/11/27 09:12:54;;;;;;;23.67;11.83;;;;;;;6.57;82.59;101301.34;5012352;28;20511;-78
2022/11/27 09:15:20;;;;;;;23.00;12.07;;;;;;;6.56;82.60;101300.50;5010780;28;20465;-78
2022/11/27 09:17:45;;;;;;;22.48;12.57;;;;;;;6.54;82.31;101299.88;5004003;28;20444;-78
2022/11/27 09:20:13;;;;;;;39.10;17.10;;;;;;;6.51;83.14;101297.59;5006052;28;20436;-78
2022/11/27 09:22:38;;;;;;;81.20;26.85;;;;;;;6.56;82.72;101286.19;5005700;28;20411;-77
2022/11/27 09:25:04;;;;;;;62.95;23.35;;;;;;;6.61;82.38;101286.44;5035358;28;20495;-76
2022/11/27 09:27:29;;;;;;;43.20;18.67;;;;;;;6.62;82.92;101288.09;5010950;28;20398;-77
2022/11/27 09:29:54;;;;;;;28.30;14.10;;;;;;;6.58;82.57;101284.16;5010587;28;20404;-77
2022/11/27 09:32:22;;;;;;;29.83;14.83;;;;;;;6.59;83.10;101281.25;5012988;28;20404;-78
2022/11/27 09:34:47;;;;;;;30.92;15.05;;;;;;;6.64;82.91;101272.59;5001679;28;20416;-77
2022/11/27 09:37:12;;;;;;;33.80;16.10;;;;;;;6.66;82.86;101279.41;5012149;28;20398;-77
2022/11/27 09:39:38;;;;;;;34.00;15.07;;;;;;;6.65;82.68;101285.84;5005170;28;20425;-77
2022/11/27 09:42:05;;;;;;;31.30;15.30;;;;;;;6.61;82.77;101279.19;5007924;28;20463;-77
2022/11/27 09:44:33;;;;;;;26.25;14.98;;;;;;;6.66;82.41;101282.13;5000114;28;20733;-77
2022/11/27 09:47:09;;;;;;;27.30;14.35;;;;;;;6.72;82.66;101284.00;5008167;28;21211;-76
2022/11/27 09:49:42;;;;;;;23.77;13.50;;;;;;;6.72;82.85;101285.88;5005634;28;20939;-78
2022/11/27 09:52:27;;;;;;;30.58;14.63;;;;;;;6.69;82.46;101281.72;5001538;28;20421;-77
2022/11/27 09:55:00;;;;;;;28.87;14.70;;;;;;;6.58;83.03;101281.47;5009373;28;20475;-77
2022/11/27 09:57:31;;;;;;;29.27;16.38;;;;;;;6.64;83.26;101280.66;5016481;28;20398;-77
2022/11/27 10:00:00;;;;;;;25.23;14.15;;;;;;;6.65;82.53;101271.56;5007146;28;22216;-77
2022/11/27 10:02:29;;;;;;;23.42;14.05;;;;;;;6.66;83.10;101275.91;5005665;28;20417;-77
2022/11/27 10:04:56;;;;;;;28.73;15.20;;;;;;;6.75;82.62;101278.22;5004584;28;20425;-76
2022/11/27 10:07:51;;;;;;;23.42;13.38;;;;;;;6.72;82.19;101267.84;5002551;28;20980;-77
2022/11/27 10:10:55;;;;;;;22.17;12.50;;;;;;;6.70;82.57;101266.38;5010565;28;20819;-76
2022/11/27 10:13:37;;;;;;;22.10;12.52;;;;;;;6.61;82.67;101262.22;4997398;28;20917;-76
2022/11/27 10:16:13;;;;;;;25.52;13.00;;;;;;;6.61;83.06;101254.13;5006891;28;20587;-76
2022/11/27 10:18:46;;;;;;;20.88;13.13;;;;;;;6.72;83.04;101256.22;5001540;28;20403;-77
2022/11/27 10:21:33;;;;;;;24.23;12.73;;;;;;;6.79;83.14;101251.72;4996819;28;20775;-76
2022/11/27 10:24:28;;;;;;;24.30;14.88;;;;;;;6.79;82.83;101254.41;5001700;28;20443;-75
2022/11/27 10:26:57;;;;;;;20.88;12.52;;;;;;;6.81;83.02;101249.66;5004479;28;20427;-75
2022/11/27 10:29:28;;;;;;;22.30;13.53;;;;;;;6.85;82.85;101239.31;5011837;28;20454;-76
2022/11/27 10:31:58;;;;;;;16.25;10.48;;;;;;;6.83;82.04;101231.44;4997386;28;20466;-76
2022/11/27 10:34:47;;;;;;;17.63;11.00;;;;;;;6.87;82.22;101221.91;5000309;28;20447;-76
2022/11/27 10:37:44;;;;;;;17.33;11.55;;;;;;;6.91;81.90;101216.94;5003953;28;20765;-77
2022/11/27 10:40:13;;;;;;;19.10;11.25;;;;;;;6.98;81.85;101199.75;5003581;28;20400;-76
2022/11/27 10:42:50;;;;;;;16.55;11.30;;;;;;;7.05;81.72;101186.28;5002199;28;20494;-76
2022/11/27 10:45:23;;;;;;;17.00;11.40;;;;;;;7.02;81.70;101179.44;5027840;28;20517;-76
2022/11/27 10:47:49;;;;;;;19.85;11.95;;;;;;;6.93;82.54;101166.38;5008276;28;20834;-76
2022/11/27 10:50:16;;;;;;;19.10;10.93;;;;;;;6.96;81.89;101160.56;5004629;28;20418;-76
2022/11/27 10:52:48;;;;;;;17.25;11.10;;;;;;;6.94;82.51;101159.97;5004221;28;20432;-76
2022/11/27 10:55:38;;;;;;;15.98;11.45;;;;;;;7.06;81.71;101161.00;4997651;28;20424;-76
2022/11/27 10:58:33;;;;;;;17.23;10.85;;;;;;;7.13;81.47;101156.47;4999158;28;20421;-77
2022/11/27 11:01:05;;;;;;;14.95;10.70;;;;;;;7.14;81.46;101150.06;5000679;28;20415;-76
2022/11/27 11:03:32;;;;;;;14.63;10.27;;;;;;;7.10;81.47;101146.94;5008411;28;20403;-77
2022/11/27 11:06:01;;;;;;;15.85;10.15;;;;;;;7.15;81.89;101147.13;5008775;28;20403;-77
2022/11/27 11:08:28;;;;;;;16.40;10.23;;;;;;;7.17;81.27;101145.09;5011244;28;20428;-76
2022/11/27 11:10:56;;;;;;;15.35;10.07;;;;;;;7.13;81.86;101138.44;4992807;28;20490;-76
2022/11/27 11:13:21;;;;;;;13.40;9.40;;;;;;;7.16;81.76;101142.56;4999927;28;20471;-76
2022/11/27 11:15:58;;;;;;;15.30;10.90;;;;;;;7.23;80.94;101138.03;5006371;28;20412;-76
2022/11/27 11:18:27;;;;;;;18.75;11.07;;;;;;;7.25;81.38;101138.63;5005502;28;21037;-76
2022/11/27 11:20:56;;;;;;;19.47;12.33;;;;;;;7.28;81.09;101132.81;5003561;28;20401;-76
2022/11/27 11:23:27;;;;;;;18.95;12.00;;;;;;;7.31;81.44;101135.09;5006262;28;20397;-77
2022/11/27 11:25:56;;;;;;;17.58;11.90;;;;;;;7.35;81.57;101132.81;5009434;28;20852;-77
2022/11/27 11:28:23;;;;;;;36.00;20.33;;;;;;;7.35;80.86;101143.63;5010313;28;20428;-77
2022/11/27 11:31:04;;;;;;;19.63;13.45;;;;;;;7.34;81.20;101140.13;5012275;28;20385;-77